sensor_id;sensor_type;location;lat;lon;timestamp;temperature;humidity
48728;DHT22;34527;45.618;5.130;2023-02-28T00:00:34;0.60;99.90
48728;DHT22;34527;45.618;5.130;2023-02-28T00:03:00;0.50;99.90
48728;DHT22;34527;45.618;5.130;2023-02-28T00:05:27;0.40;99.90
48728;DHT22;34527;45.618;5.130;2023-02-28T00:07:54;0.40;99.90
48728;DHT22;34527;45.618;5.130;2023-02-28T00:10:22;0.40;99.90
48728;DHT22;34527;45.618;5.130;2023-02-28T00:12:50;0.40;99.90
48728;DHT22;34527;45.618;5.130;2023-02-28T00:15:16;0.30;99.90
48728;DHT22;34527;45.618;5.130;2023-02-28T00:17:42;0.40;99.90
48728;DHT22;34527;45.618;5.130;2023-02-28T00:20:09;0.40;99.90
48728;DHT22;34527;45.618;5.130;2023-02-28T00:22:39;0.40;99.90
48728;DHT22;34527;45.618;5.130;2023-02-28T00:25:06;0.50;99.90
48728;DHT22;34527;45.618;5.130;2023-02-28T00:27:35;0.40;99.90
48728;DHT22;34527;45.618;5.130;2023-02-28T00:30:02;0.50;99.90
48728;DHT22;34527;45.618;5.130;2023-02-28T00:32:27;0.50;99.90
48728;DHT22;34527;45.618;5.130;2023-02-28T00:34:53;0.50;99.90
48728;DHT22;34527;45.618;5.130;2023-02-28T00:37:19;0.50;99.90
48728;DHT22;34527;45.618;5.130;2023-02-28T00:39:44;0.40;99.90
48728;DHT22;34527;45.618;5.130;2023-02-28T00:42:10;0.40;99.90
48728;DHT22;34527;45.618;5.130;2023-02-28T00:44:36;0.50;99.90
48728;DHT22;34527;45.618;5.130;2023-02-28T00:47:01;0.50;99.90
48728;DHT22;34527;45.618;5.130;2023-02-28T00:49:27;0.50;99.90
48728;DHT22;34527;45.618;5.130;2023-02-28T00:51:54;0.50;99.90
48728;DHT22;34527;45.618;5.130;2023-02-28T00:54:20;0.40;99.90
48728;DHT22;34527;45.618;5.130;2023-02-28T00:56:47;0.40;99.90
48728;DHT22;34527;45.618;5.130;2023-02-28T00:59:14;0.50;99.90
48728;DHT22;34527;45.618;5.130;2023-02-28T01:01:40;0.50;99.90
48728;DHT22;34527;45.618;5.130;2023-02-28T01:04:05;0.50;99.90
48728;DHT22;34527;45.618;5.130;2023-02-28T01:06:31;0.60;99.90
48728;DHT22;34527;45.618;5.130;2023-02-28T01:08:57;0.60;99.90
48728;DHT22;34527;45.618;5.130;2023-02-28T01:11:23;0.70;99.90
48728;DHT22;34527;45.618;5.130;2023-02-28T01:13:49;0.70;99.90
48728;DHT22;34527;45.618;5.130;2023-02-28T01:16:14;0.70;99.90
48728;DHT22;34527;45.618;5.130;2023-02-28T01:18:40;0.70;99.90
48728;DHT22;34527;45.618;5.130;2023-02-28T01:21:08;0.80;99.90
48728;DHT22;34527;45.618;5.130;2023-02-28T01:23:34;0.80;99.90
48728;DHT22;34527;45.618;5.130;2023-02-28T01:26:08;0.80;99.90
48728;DHT22;34527;45.618;5.130;2023-02-28T01:28:34;0.90;99.90
48728;DHT22;34527;45.618;5.130;2023-02-28T01:31:00;0.80;99.90
48728;DHT22;34527;45.618;5.130;2023-02-28T01:33:26;0.90;99.90
48728;DHT22;34527;45.618;5.130;2023-02-28T01:36:04;1.00;99.90
48728;DHT22;34527;45.618;5.130;2023-02-28T01:38:30;1.00;99.90
48728;DHT22;34527;45.618;5.130;2023-02-28T01:40:57;1.10;99.90
48728;DHT22;34527;45.618;5.130;2023-02-28T01:43:28;1.10;99.90
48728;DHT22;34527;45.618;5.130;2023-02-28T01:45:55;1.10;99.90
48728;DHT22;34527;45.618;5.130;2023-02-28T01:48:24;1.10;99.90
48728;DHT22;34527;45.618;5.130;2023-02-28T01:50:52;1.10;99.90
48728;DHT22;34527;45.618;5.130;2023-02-28T01:53:21;1.10;99.90
48728;DHT22;34527;45.618;5.130;2023-02-28T01:55:50;1.20;99.90
48728;DHT22;34527;45.618;5.130;2023-02-28T01:58:17;1.20;99.90
48728;DHT22;34527;45.618;5.130;2023-02-28T02:00:43;1.20;99.90
48728;DHT22;34527;45.618;5.130;2023-02-28T02:03:12;1.20;99.90
48728;DHT22;34527;45.618;5.130;2023-02-28T02:05:39;1.20;99.90
48728;DHT22;34527;45.618;5.130;2023-02-28T02:08:10;1.20;99.90
48728;DHT22;34527;45.618;5.130;2023-02-28T02:10:48;1.20;99.90
48728;DHT22;34527;45.618;5.130;2023-02-28T02:13:22;1.20;99.90
48728;DHT22;34527;45.618;5.130;2023-02-28T02:16:03;1.20;99.90
48728;DHT22;34527;45.618;5.130;2023-02-28T02:18:52;1.30;99.90
48728;DHT22;34527;45.618;5.130;2023-02-28T02:21:35;1.30;99.90
48728;DHT22;34527;45.618;5.130;2023-02-28T02:35:14;1.30;99.90
48728;DHT22;34527;45.618;5.130;2023-02-28T02:43:27;1.30;99.90
48728;DHT22;34527;45.618;5.130;2023-02-28T02:45:58;1.30;99.90
48728;DHT22;34527;45.618;5.130;2023-02-28T02:48:29;1.30;99.90
48728;DHT22;34527;45.618;5.130;2023-02-28T02:50:58;1.30;99.90
48728;DHT22;34527;45.618;5.130;2023-02-28T02:53:36;1.30;99.90
48728;DHT22;34527;45.618;5.130;2023-02-28T02:56:04;1.30;99.90
48728;DHT22;34527;45.618;5.130;2023-02-28T02:58:35;1.30;99.90
48728;DHT22;34527;45.618;5.130;2023-02-28T03:01:08;1.20;99.90
48728;DHT22;34527;45.618;5.130;2023-02-28T03:03:36;1.10;99.90
48728;DHT22;34527;45.618;5.130;2023-02-28T03:06:03;1.10;99.90
48728;DHT22;34527;45.618;5.130;2023-02-28T03:08:34;1.10;99.90
48728;DHT22;34527;45.618;5.130;2023-02-28T03:11:02;1.20;99.90
48728;DHT22;34527;45.618;5.130;2023-02-28T03:26:59;1.10;99.90
48728;DHT22;34527;45.618;5.130;2023-02-28T03:29:37;1.10;99.90
48728;DHT22;34527;45.618;5.130;2023-02-28T03:32:10;1.00;99.90
48728;DHT22;34527;45.618;5.130;2023-02-28T03:34:46;1.00;99.90
48728;DHT22;34527;45.618;5.130;2023-02-28T03:37:18;1.00;99.90
48728;DHT22;34527;45.618;5.130;2023-02-28T03:40:01;0.90;99.90
48728;DHT22;34527;45.618;5.130;2023-02-28T03:42:34;0.90;99.90
48728;DHT22;34527;45.618;5.130;2023-02-28T03:45:09;0.90;99.90
48728;DHT22;34527;45.618;5.130;2023-02-28T03:48:01;0.90;99.90
48728;DHT22;34527;45.618;5.130;2023-02-28T03:50:34;0.90;99.90
48728;DHT22;34527;45.618;5.130;2023-02-28T03:53:05;0.90;99.90
48728;DHT22;34527;45.618;5.130;2023-02-28T03:55:43;0.80;99.90
48728;DHT22;34527;45.618;5.130;2023-02-28T03:58:35;0.80;99.90
48728;DHT22;34527;45.618;5.130;2023-02-28T04:01:11;0.80;99.90
48728;DHT22;34527;45.618;5.130;2023-02-28T04:03:38;0.80;99.90
48728;DHT22;34527;45.618;5.130;2023-02-28T04:06:07;0.70;99.90
48728;DHT22;34527;45.618;5.130;2023-02-28T04:08:33;0.70;99.90
48728;DHT22;34527;45.618;5.130;2023-02-28T04:11:08;0.70;99.90
48728;DHT22;34527;45.618;5.130;2023-02-28T04:13:38;0.70;99.90
48728;DHT22;34527;45.618;5.130;2023-02-28T04:16:07;0.60;99.90
48728;DHT22;34527;45.618;5.130;2023-02-28T04:18:41;0.70;99.90
48728;DHT22;34527;45.618;5.130;2023-02-28T04:21:08;0.70;99.90
48728;DHT22;34527;45.618;5.130;2023-02-28T04:23:34;0.70;99.90
48728;DHT22;34527;45.618;5.130;2023-02-28T04:26:00;0.70;99.90
48728;DHT22;34527;45.618;5.130;2023-02-28T04:28:26;0.70;99.90
48728;DHT22;34527;45.618;5.130;2023-02-28T04:30:59;0.60;99.90
48728;DHT22;34527;45.618;5.130;2023-02-28T04:33:25;0.50;99.90
48728;DHT22;34527;45.618;5.130;2023-02-28T04:36:01;0.50;99.90
48728;DHT22;34527;45.618;5.130;2023-02-28T04:38:29;0.40;99.90
48728;DHT22;34527;45.618;5.130;2023-02-28T04:40:57;0.40;99.90
48728;DHT22;34527;45.618;5.130;2023-02-28T04:43:22;0.40;99.90
48728;DHT22;34527;45.618;5.130;2023-02-28T04:45:48;0.30;99.90
48728;DHT22;34527;45.618;5.130;2023-02-28T04:48:14;0.30;99.90
48728;DHT22;34527;45.618;5.130;2023-02-28T04:50:39;0.30;99.90
48728;DHT22;34527;45.618;5.130;2023-02-28T04:53:05;0.30;99.90
48728;DHT22;34527;45.618;5.130;2023-02-28T04:55:30;0.30;99.90
48728;DHT22;34527;45.618;5.130;2023-02-28T04:57:56;0.40;99.90
48728;DHT22;34527;45.618;5.130;2023-02-28T05:00:21;0.30;99.90
48728;DHT22;34527;45.618;5.130;2023-02-28T05:02:47;0.30;99.90
48728;DHT22;34527;45.618;5.130;2023-02-28T05:05:13;0.20;99.90
48728;DHT22;34527;45.618;5.130;2023-02-28T05:07:43;0.30;99.90
48728;DHT22;34527;45.618;5.130;2023-02-28T05:10:11;0.30;99.90
48728;DHT22;34527;45.618;5.130;2023-02-28T05:12:36;0.20;99.90
48728;DHT22;34527;45.618;5.130;2023-02-28T05:15:03;0.20;99.90
48728;DHT22;34527;45.618;5.130;2023-02-28T05:17:30;0.20;99.90
48728;DHT22;34527;45.618;5.130;2023-02-28T05:19:56;0.20;99.90
48728;DHT22;34527;45.618;5.130;2023-02-28T05:22:21;0.10;99.90
48728;DHT22;34527;45.618;5.130;2023-02-28T05:24:47;0.10;99.90
48728;DHT22;34527;45.618;5.130;2023-02-28T05:27:13;0.10;99.90
48728;DHT22;34527;45.618;5.130;2023-02-28T05:29:38;0.10;99.90
48728;DHT22;34527;45.618;5.130;2023-02-28T05:32:11;0.20;99.90
48728;DHT22;34527;45.618;5.130;2023-02-28T05:34:41;0.20;99.90
48728;DHT22;34527;45.618;5.130;2023-02-28T05:37:11;0.20;99.90
48728;DHT22;34527;45.618;5.130;2023-02-28T05:39:37;0.30;99.90
48728;DHT22;34527;45.618;5.130;2023-02-28T05:42:04;0.30;99.90
48728;DHT22;34527;45.618;5.130;2023-02-28T05:44:29;0.30;99.90
48728;DHT22;34527;45.618;5.130;2023-02-28T05:46:55;0.40;99.90
48728;DHT22;34527;45.618;5.130;2023-02-28T05:49:21;0.40;99.90
48728;DHT22;34527;45.618;5.130;2023-02-28T05:51:47;0.40;99.90
48728;DHT22;34527;45.618;5.130;2023-02-28T05:54:12;0.40;99.90
48728;DHT22;34527;45.618;5.130;2023-02-28T05:56:38;0.50;99.90
48728;DHT22;34527;45.618;5.130;2023-02-28T05:59:10;0.50;99.90
48728;DHT22;34527;45.618;5.130;2023-02-28T06:01:38;0.40;99.90
48728;DHT22;34527;45.618;5.130;2023-02-28T06:04:06;0.40;99.90
48728;DHT22;34527;45.618;5.130;2023-02-28T06:06:32;0.40;99.90
48728;DHT22;34527;45.618;5.130;2023-02-28T06:08:59;0.30;99.90
48728;DHT22;34527;45.618;5.130;2023-02-28T06:11:26;0.30;99.90
48728;DHT22;34527;45.618;5.130;2023-02-28T06:13:59;0.30;99.90
48728;DHT22;34527;45.618;5.130;2023-02-28T06:16:27;0.30;99.90
48728;DHT22;34527;45.618;5.130;2023-02-28T06:18:52;0.30;99.90
48728;DHT22;34527;45.618;5.130;2023-02-28T06:21:21;0.30;99.90
48728;DHT22;34527;45.618;5.130;2023-02-28T06:23:46;0.30;99.90
48728;DHT22;34527;45.618;5.130;2023-02-28T06:26:12;0.30;99.90
48728;DHT22;34527;45.618;5.130;2023-02-28T06:28:38;0.30;99.90
48728;DHT22;34527;45.618;5.130;2023-02-28T06:31:11;0.30;99.90
48728;DHT22;34527;45.618;5.130;2023-02-28T06:33:38;0.40;99.90
48728;DHT22;34527;45.618;5.130;2023-02-28T06:36:05;0.30;99.90
48728;DHT22;34527;45.618;5.130;2023-02-28T06:38:31;0.40;99.90
48728;DHT22;34527;45.618;5.130;2023-02-28T06:40:58;0.30;99.90
48728;DHT22;34527;45.618;5.130;2023-02-28T06:43:25;0.30;99.90
48728;DHT22;34527;45.618;5.130;2023-02-28T06:45:53;0.40;99.90
48728;DHT22;34527;45.618;5.130;2023-02-28T06:48:19;0.40;99.90
48728;DHT22;34527;45.618;5.130;2023-02-28T06:50:44;0.40;99.90
48728;DHT22;34527;45.618;5.130;2023-02-28T06:53:10;0.40;99.90
48728;DHT22;34527;45.618;5.130;2023-02-28T06:55:38;0.30;99.90
48728;DHT22;34527;45.618;5.130;2023-02-28T06:58:04;0.40;99.90
48728;DHT22;34527;45.618;5.130;2023-02-28T07:00:43;0.40;99.90
48728;DHT22;34527;45.618;5.130;2023-02-28T07:03:09;0.40;99.90
48728;DHT22;34527;45.618;5.130;2023-02-28T07:05:36;0.40;99.90
48728;DHT22;34527;45.618;5.130;2023-02-28T07:08:02;0.60;99.90
48728;DHT22;34527;45.618;5.130;2023-02-28T07:10:29;0.60;99.90
48728;DHT22;34527;45.618;5.130;2023-02-28T07:12:54;0.50;99.90
48728;DHT22;34527;45.618;5.130;2023-02-28T07:15:20;0.50;99.90
48728;DHT22;34527;45.618;5.130;2023-02-28T07:17:45;0.50;99.90
48728;DHT22;34527;45.618;5.130;2023-02-28T07:20:12;0.50;99.90
48728;DHT22;34527;45.618;5.130;2023-02-28T07:22:37;0.50;99.90
48728;DHT22;34527;45.618;5.130;2023-02-28T07:25:04;0.50;99.90
48728;DHT22;34527;45.618;5.130;2023-02-28T07:27:30;0.50;99.90
48728;DHT22;34527;45.618;5.130;2023-02-28T07:29:56;0.50;99.90
48728;DHT22;34527;45.618;5.130;2023-02-28T07:32:21;0.60;99.90
48728;DHT22;34527;45.618;5.130;2023-02-28T07:34:47;0.60;99.90
48728;DHT22;34527;45.618;5.130;2023-02-28T07:37:14;0.60;99.90
48728;DHT22;34527;45.618;5.130;2023-02-28T07:39:40;0.60;99.90
48728;DHT22;34527;45.618;5.130;2023-02-28T07:42:07;0.60;99.90
48728;DHT22;34527;45.618;5.130;2023-02-28T07:44:36;0.60;99.90
48728;DHT22;34527;45.618;5.130;2023-02-28T07:47:08;0.50;99.90
48728;DHT22;34527;45.618;5.130;2023-02-28T07:49:35;0.50;99.90
48728;DHT22;34527;45.618;5.130;2023-02-28T07:52:03;0.50;99.90
48728;DHT22;34527;45.618;5.130;2023-02-28T07:54:29;0.50;99.90
48728;DHT22;34527;45.618;5.130;2023-02-28T07:56:54;0.50;99.90
48728;DHT22;34527;45.618;5.130;2023-02-28T07:59:20;0.50;99.90
48728;DHT22;34527;45.618;5.130;2023-02-28T08:01:45;0.60;99.90
48728;DHT22;34527;45.618;5.130;2023-02-28T08:04:11;0.50;99.90
48728;DHT22;34527;45.618;5.130;2023-02-28T08:06:37;0.60;99.90
48728;DHT22;34527;45.618;5.130;2023-02-28T08:09:02;0.60;99.90
48728;DHT22;34527;45.618;5.130;2023-02-28T08:11:28;0.90;99.90
48728;DHT22;34527;45.618;5.130;2023-02-28T08:13:55;1.00;99.90
48728;DHT22;34527;45.618;5.130;2023-02-28T08:16:20;0.90;99.90
48728;DHT22;34527;45.618;5.130;2023-02-28T08:18:51;1.00;99.90
48728;DHT22;34527;45.618;5.130;2023-02-28T08:21:17;1.10;99.90
48728;DHT22;34527;45.618;5.130;2023-02-28T08:23:43;1.00;99.90
48728;DHT22;34527;45.618;5.130;2023-02-28T08:26:09;1.00;99.90
48728;DHT22;34527;45.618;5.130;2023-02-28T08:28:35;1.00;99.90
48728;DHT22;34527;45.618;5.130;2023-02-28T08:31:00;1.10;99.90
48728;DHT22;34527;45.618;5.130;2023-02-28T08:33:27;1.10;99.90
48728;DHT22;34527;45.618;5.130;2023-02-28T08:35:54;1.20;99.90
48728;DHT22;34527;45.618;5.130;2023-02-28T08:38:20;1.10;99.90
48728;DHT22;34527;45.618;5.130;2023-02-28T08:40:46;1.20;99.90
48728;DHT22;34527;45.618;5.130;2023-02-28T08:43:11;1.30;99.90
48728;DHT22;34527;45.618;5.130;2023-02-28T08:45:37;1.30;99.90
48728;DHT22;34527;45.618;5.130;2023-02-28T08:48:03;1.30;99.90
48728;DHT22;34527;45.618;5.130;2023-02-28T08:50:28;1.30;99.90
48728;DHT22;34527;45.618;5.130;2023-02-28T08:52:54;1.30;99.90
48728;DHT22;34527;45.618;5.130;2023-02-28T08:55:20;1.50;99.90
48728;DHT22;34527;45.618;5.130;2023-02-28T08:57:45;1.70;99.90
48728;DHT22;34527;45.618;5.130;2023-02-28T09:00:13;1.70;99.90
48728;DHT22;34527;45.618;5.130;2023-02-28T09:02:39;1.90;99.90
48728;DHT22;34527;45.618;5.130;2023-02-28T09:05:06;1.80;99.90
48728;DHT22;34527;45.618;5.130;2023-02-28T09:07:31;1.90;99.90
48728;DHT22;34527;45.618;5.130;2023-02-28T09:09:57;1.80;99.90
48728;DHT22;34527;45.618;5.130;2023-02-28T09:12:27;1.80;99.90
48728;DHT22;34527;45.618;5.130;2023-02-28T09:14:53;1.90;99.90
48728;DHT22;34527;45.618;5.130;2023-02-28T09:17:19;1.80;99.90
48728;DHT22;34527;45.618;5.130;2023-02-28T09:19:48;1.80;99.90
48728;DHT22;34527;45.618;5.130;2023-02-28T09:22:14;1.70;99.90
48728;DHT22;34527;45.618;5.130;2023-02-28T09:24:40;1.70;99.90
48728;DHT22;34527;45.618;5.130;2023-02-28T09:27:06;1.80;99.90
48728;DHT22;34527;45.618;5.130;2023-02-28T09:29:32;1.80;99.90
48728;DHT22;34527;45.618;5.130;2023-02-28T09:31:58;1.80;99.90
48728;DHT22;34527;45.618;5.130;2023-02-28T09:34:28;1.90;99.90
48728;DHT22;34527;45.618;5.130;2023-02-28T09:36:56;1.90;99.90
48728;DHT22;34527;45.618;5.130;2023-02-28T09:39:22;2.00;99.90
48728;DHT22;34527;45.618;5.130;2023-02-28T09:41:51;2.10;99.90
48728;DHT22;34527;45.618;5.130;2023-02-28T09:44:29;2.10;99.90
48728;DHT22;34527;45.618;5.130;2023-02-28T09:46:59;2.30;99.90
48728;DHT22;34527;45.618;5.130;2023-02-28T09:49:34;2.30;99.90
48728;DHT22;34527;45.618;5.130;2023-02-28T09:52:19;2.30;99.90
48728;DHT22;34527;45.618;5.130;2023-02-28T09:54:46;2.50;99.90
48728;DHT22;34527;45.618;5.130;2023-02-28T09:57:37;2.40;99.90
48728;DHT22;34527;45.618;5.130;2023-02-28T10:00:24;2.30;99.90
48728;DHT22;34527;45.618;5.130;2023-02-28T10:05:24;2.20;99.90
48728;DHT22;34527;45.618;5.130;2023-02-28T10:10:49;2.40;99.90
48728;DHT22;34527;45.618;5.130;2023-02-28T10:15:52;2.60;99.90
48728;DHT22;34527;45.618;5.130;2023-02-28T10:18:24;2.60;99.90
48728;DHT22;34527;45.618;5.130;2023-02-28T10:20:51;2.70;99.90
48728;DHT22;34527;45.618;5.130;2023-02-28T10:23:28;2.60;99.90
48728;DHT22;34527;45.618;5.130;2023-02-28T10:26:05;2.50;99.90
48728;DHT22;34527;45.618;5.130;2023-02-28T10:28:33;2.60;99.90
48728;DHT22;34527;45.618;5.130;2023-02-28T10:30:59;2.40;99.90
48728;DHT22;34527;45.618;5.130;2023-02-28T10:33:28;2.40;99.90
48728;DHT22;34527;45.618;5.130;2023-02-28T10:35:54;2.60;99.90
48728;DHT22;34527;45.618;5.130;2023-02-28T10:38:24;2.60;99.90
48728;DHT22;34527;45.618;5.130;2023-02-28T10:40:50;2.70;99.90
48728;DHT22;34527;45.618;5.130;2023-02-28T10:50:58;2.80;99.90
48728;DHT22;34527;45.618;5.130;2023-02-28T10:58:52;2.80;99.90
48728;DHT22;34527;45.618;5.130;2023-02-28T11:04:36;2.70;99.90
48728;DHT22;34527;45.618;5.130;2023-02-28T11:07:06;2.80;99.90
48728;DHT22;34527;45.618;5.130;2023-02-28T11:09:39;2.80;99.90
48728;DHT22;34527;45.618;5.130;2023-02-28T11:12:08;2.80;99.90
48728;DHT22;34527;45.618;5.130;2023-02-28T11:14:47;2.90;99.90
48728;DHT22;34527;45.618;5.130;2023-02-28T11:17:20;2.80;99.90
48728;DHT22;34527;45.618;5.130;2023-02-28T11:19:49;2.80;99.90
48728;DHT22;34527;45.618;5.130;2023-02-28T11:22:23;2.80;99.90
48728;DHT22;34527;45.618;5.130;2023-02-28T11:24:53;2.80;99.90
48728;DHT22;34527;45.618;5.130;2023-02-28T11:29:56;3.00;99.90
48728;DHT22;34527;45.618;5.130;2023-02-28T11:32:29;3.20;99.90
48728;DHT22;34527;45.618;5.130;2023-02-28T11:37:57;3.10;99.90
48728;DHT22;34527;45.618;5.130;2023-02-28T11:40:36;3.00;99.90
48728;DHT22;34527;45.618;5.130;2023-02-28T11:51:15;3.10;99.90
48728;DHT22;34527;45.618;5.130;2023-02-28T11:56:53;3.20;99.90
48728;DHT22;34527;45.618;5.130;2023-02-28T11:59:51;3.10;99.90
48728;DHT22;34527;45.618;5.130;2023-02-28T12:02:23;3.00;99.90
48728;DHT22;34527;45.618;5.130;2023-02-28T12:07:53;3.30;99.90
48728;DHT22;34527;45.618;5.130;2023-02-28T12:10:28;3.40;99.90
48728;DHT22;34527;45.618;5.130;2023-02-28T12:26:24;3.30;99.90
48728;DHT22;34527;45.618;5.130;2023-02-28T12:29:10;3.30;99.90
48728;DHT22;34527;45.618;5.130;2023-02-28T12:31:51;3.40;99.90
48728;DHT22;34527;45.618;5.130;2023-02-28T12:34:22;3.40;99.90
48728;DHT22;34527;45.618;5.130;2023-02-28T12:36:51;3.40;99.90
48728;DHT22;34527;45.618;5.130;2023-02-28T12:39:28;3.50;99.90
48728;DHT22;34527;45.618;5.130;2023-02-28T12:42:28;3.40;99.90
48728;DHT22;34527;45.618;5.130;2023-02-28T12:45:12;3.50;99.90
48728;DHT22;34527;45.618;5.130;2023-02-28T12:47:40;3.60;99.90
48728;DHT22;34527;45.618;5.130;2023-02-28T12:50:10;3.60;99.90
48728;DHT22;34527;45.618;5.130;2023-02-28T13:09:33;4.00;99.90
48728;DHT22;34527;45.618;5.130;2023-02-28T13:11:59;4.10;99.90
48728;DHT22;34527;45.618;5.130;2023-02-28T13:19:38;4.10;99.90
48728;DHT22;34527;45.618;5.130;2023-02-28T13:22:05;4.20;99.90
48728;DHT22;34527;45.618;5.130;2023-02-28T13:24:41;4.30;99.90
48728;DHT22;34527;45.618;5.130;2023-02-28T13:29:43;4.30;99.90
48728;DHT22;34527;45.618;5.130;2023-02-28T13:42:52;4.30;99.90
48728;DHT22;34527;45.618;5.130;2023-02-28T13:45:22;4.30;99.90
48728;DHT22;34527;45.618;5.130;2023-02-28T14:06:47;4.30;99.90
48728;DHT22;34527;45.618;5.130;2023-02-28T14:09:32;4.30;99.90
48728;DHT22;34527;45.618;5.130;2023-02-28T14:12:51;4.30;99.90
48728;DHT22;34527;45.618;5.130;2023-02-28T14:15:23;4.40;99.90
48728;DHT22;34527;45.618;5.130;2023-02-28T14:17:55;4.40;99.90
48728;DHT22;34527;45.618;5.130;2023-02-28T14:20:22;4.50;99.90
48728;DHT22;34527;45.618;5.130;2023-02-28T14:25:51;4.50;99.90
48728;DHT22;34527;45.618;5.130;2023-02-28T14:28:46;4.60;99.90
48728;DHT22;34527;45.618;5.130;2023-02-28T14:31:28;4.60;99.90
48728;DHT22;34527;45.618;5.130;2023-02-28T14:36:45;4.50;99.90
48728;DHT22;34527;45.618;5.130;2023-02-28T14:39:17;4.70;99.90
48728;DHT22;34527;45.618;5.130;2023-02-28T14:41:45;4.60;99.90
48728;DHT22;34527;45.618;5.130;2023-02-28T14:46:40;4.60;99.90
48728;DHT22;34527;45.618;5.130;2023-02-28T14:49:13;4.60;99.90
48728;DHT22;34527;45.618;5.130;2023-02-28T14:51:40;4.60;99.90
48728;DHT22;34527;45.618;5.130;2023-02-28T14:54:06;4.50;99.90
48728;DHT22;34527;45.618;5.130;2023-02-28T14:56:37;4.50;99.90
48728;DHT22;34527;45.618;5.130;2023-02-28T14:59:05;4.50;99.90
48728;DHT22;34527;45.618;5.130;2023-02-28T15:01:46;4.50;99.90
48728;DHT22;34527;45.618;5.130;2023-02-28T15:04:22;4.50;99.90
48728;DHT22;34527;45.618;5.130;2023-02-28T15:07:14;4.50;99.90
48728;DHT22;34527;45.618;5.130;2023-02-28T15:09:41;4.60;99.90
48728;DHT22;34527;45.618;5.130;2023-02-28T15:12:07;4.50;99.90
48728;DHT22;34527;45.618;5.130;2023-02-28T15:14:37;4.50;99.90
48728;DHT22;34527;45.618;5.130;2023-02-28T15:17:07;4.50;99.90
48728;DHT22;34527;45.618;5.130;2023-02-28T15:19:36;4.40;99.90
48728;DHT22;34527;45.618;5.130;2023-02-28T15:22:07;4.50;99.90
48728;DHT22;34527;45.618;5.130;2023-02-28T15:24:44;4.40;99.90
48728;DHT22;34527;45.618;5.130;2023-02-28T15:27:22;4.40;99.90
48728;DHT22;34527;45.618;5.130;2023-02-28T15:29:53;4.40;99.90
48728;DHT22;34527;45.618;5.130;2023-02-28T15:32:28;4.40;99.90
48728;DHT22;34527;45.618;5.130;2023-02-28T15:34:55;4.40;99.90
48728;DHT22;34527;45.618;5.130;2023-02-28T15:37:45;4.40;99.90
48728;DHT22;34527;45.618;5.130;2023-02-28T15:40:29;4.40;99.90
48728;DHT22;34527;45.618;5.130;2023-02-28T15:43:16;4.30;99.90
48728;DHT22;34527;45.618;5.130;2023-02-28T15:45:50;4.30;99.90
48728;DHT22;34527;45.618;5.130;2023-02-28T15:48:20;4.30;99.90
48728;DHT22;34527;45.618;5.130;2023-02-28T15:50:52;4.30;99.90
48728;DHT22;34527;45.618;5.130;2023-02-28T15:53:25;4.30;99.90
48728;DHT22;34527;45.618;5.130;2023-02-28T15:56:18;4.40;99.90
48728;DHT22;34527;45.618;5.130;2023-02-28T15:58:45;4.30;99.90
48728;DHT22;34527;45.618;5.130;2023-02-28T16:01:20;4.30;99.90
48728;DHT22;34527;45.618;5.130;2023-02-28T16:03:50;4.30;99.90
48728;DHT22;34527;45.618;5.130;2023-02-28T16:08:50;4.30;99.90
48728;DHT22;34527;45.618;5.130;2023-02-28T16:11:17;4.30;99.90
48728;DHT22;34527;45.618;5.130;2023-02-28T16:13:42;4.30;99.90
48728;DHT22;34527;45.618;5.130;2023-02-28T16:16:08;4.20;99.90
48728;DHT22;34527;45.618;5.130;2023-02-28T16:18:33;4.20;99.90
48728;DHT22;34527;45.618;5.130;2023-02-28T16:20:59;4.20;99.90
48728;DHT22;34527;45.618;5.130;2023-02-28T16:23:25;4.20;99.90
48728;DHT22;34527;45.618;5.130;2023-02-28T16:25:50;4.20;99.90
48728;DHT22;34527;45.618;5.130;2023-02-28T16:28:29;4.10;99.90
48728;DHT22;34527;45.618;5.130;2023-02-28T16:30:56;4.10;99.90
48728;DHT22;34527;45.618;5.130;2023-02-28T16:33:22;4.10;99.90
48728;DHT22;34527;45.618;5.130;2023-02-28T16:35:48;4.00;99.90
48728;DHT22;34527;45.618;5.130;2023-02-28T16:38:13;4.10;99.90
48728;DHT22;34527;45.618;5.130;2023-02-28T16:40:39;4.10;99.90
48728;DHT22;34527;45.618;5.130;2023-02-28T16:43:07;4.00;99.90
48728;DHT22;34527;45.618;5.130;2023-02-28T16:45:37;4.00;99.90
48728;DHT22;34527;45.618;5.130;2023-02-28T16:48:02;4.00;99.90
48728;DHT22;34527;45.618;5.130;2023-02-28T16:50:29;3.90;99.90
48728;DHT22;34527;45.618;5.130;2023-02-28T16:52:55;3.90;99.90
48728;DHT22;34527;45.618;5.130;2023-02-28T16:55:25;3.90;99.90
48728;DHT22;34527;45.618;5.130;2023-02-28T16:57:57;3.90;99.90
48728;DHT22;34527;45.618;5.130;2023-02-28T17:00:24;3.80;99.90
48728;DHT22;34527;45.618;5.130;2023-02-28T17:02:50;3.80;99.90
48728;DHT22;34527;45.618;5.130;2023-02-28T17:05:16;3.80;99.90
48728;DHT22;34527;45.618;5.130;2023-02-28T17:07:43;3.70;99.90
48728;DHT22;34527;45.618;5.130;2023-02-28T17:10:25;3.70;99.90
48728;DHT22;34527;45.618;5.130;2023-02-28T17:12:51;3.70;99.90
48728;DHT22;34527;45.618;5.130;2023-02-28T17:15:19;3.70;99.90
48728;DHT22;34527;45.618;5.130;2023-02-28T17:17:45;3.60;99.90
48728;DHT22;34527;45.618;5.130;2023-02-28T17:20:16;3.60;99.90
48728;DHT22;34527;45.618;5.130;2023-02-28T17:22:42;3.60;99.90
48728;DHT22;34527;45.618;5.130;2023-02-28T17:25:09;3.60;99.90
48728;DHT22;34527;45.618;5.130;2023-02-28T17:27:35;3.60;99.90
48728;DHT22;34527;45.618;5.130;2023-02-28T17:30:01;3.60;99.90
48728;DHT22;34527;45.618;5.130;2023-02-28T17:32:27;3.50;99.90
48728;DHT22;34527;45.618;5.130;2023-02-28T17:34:53;3.50;99.90
48728;DHT22;34527;45.618;5.130;2023-02-28T17:37:19;3.50;99.90
48728;DHT22;34527;45.618;5.130;2023-02-28T17:39:44;3.50;99.90
48728;DHT22;34527;45.618;5.130;2023-02-28T17:42:10;3.50;99.90
48728;DHT22;34527;45.618;5.130;2023-02-28T17:44:36;3.40;99.90
48728;DHT22;34527;45.618;5.130;2023-02-28T17:47:03;3.50;99.90
48728;DHT22;34527;45.618;5.130;2023-02-28T17:49:28;3.50;99.90
48728;DHT22;34527;45.618;5.130;2023-02-28T17:51:54;3.40;99.90
48728;DHT22;34527;45.618;5.130;2023-02-28T17:54:20;3.40;99.90
48728;DHT22;34527;45.618;5.130;2023-02-28T17:56:45;3.40;99.90
48728;DHT22;34527;45.618;5.130;2023-02-28T17:59:12;3.40;99.90
48728;DHT22;34527;45.618;5.130;2023-02-28T18:01:38;3.40;99.90
48728;DHT22;34527;45.618;5.130;2023-02-28T18:04:03;3.30;99.90
48728;DHT22;34527;45.618;5.130;2023-02-28T18:06:40;3.30;99.90
48728;DHT22;34527;45.618;5.130;2023-02-28T18:09:14;3.30;99.90
48728;DHT22;34527;45.618;5.130;2023-02-28T18:11:40;3.30;99.90
48728;DHT22;34527;45.618;5.130;2023-02-28T18:14:14;3.30;99.90
48728;DHT22;34527;45.618;5.130;2023-02-28T18:16:39;3.20;99.90
48728;DHT22;34527;45.618;5.130;2023-02-28T18:19:05;3.20;99.90
48728;DHT22;34527;45.618;5.130;2023-02-28T18:21:31;3.20;99.90
48728;DHT22;34527;45.618;5.130;2023-02-28T18:23:57;3.20;99.90
48728;DHT22;34527;45.618;5.130;2023-02-28T18:26:23;3.20;99.90
48728;DHT22;34527;45.618;5.130;2023-02-28T18:28:48;3.20;99.90
48728;DHT22;34527;45.618;5.130;2023-02-28T18:31:18;3.10;99.90